sensor_id;sensor_type;location;lat;lon;timestamp;P1;durP1;ratioP1;P2;durP2;ratioP2
27618;SDS011;15039;50.830;4.730;2023-02-28T00:00:32;5.30;;;4.15;;
27618;SDS011;15039;50.830;4.730;2023-02-28T00:03:00;7.22;;;4.10;;
27618;SDS011;15039;50.830;4.730;2023-02-28T00:05:26;4.68;;;3.97;;
27618;SDS011;15039;50.830;4.730;2023-02-28T00:07:53;8.20;;;4.30;;
27618;SDS011;15039;50.830;4.730;2023-02-28T00:10:20;6.07;;;4.18;;
27618;SDS011;15039;50.830;4.730;2023-02-28T00:12:51;4.93;;;3.58;;
27618;SDS011;15039;50.830;4.730;2023-02-28T00:15:19;6.60;;;3.85;;
27618;SDS011;15039;50.830;4.730;2023-02-28T00:17:47;5.53;;;4.60;;
27618;SDS011;15039;50.830;4.730;2023-02-28T00:20:13;4.40;;;4.00;;
27618;SDS011;15039;50.830;4.730;2023-02-28T00:22:39;5.78;;;4.20;;
27618;SDS011;15039;50.830;4.730;2023-02-28T00:25:09;6.57;;;4.18;;
27618;SDS011;15039;50.830;4.730;2023-02-28T00:27:37;6.90;;;3.90;;
27618;SDS011;15039;50.830;4.730;2023-02-28T00:30:04;5.00;;;3.90;;
27618;SDS011;15039;50.830;4.730;2023-02-28T00:32:31;7.55;;;3.83;;
27618;SDS011;15039;50.830;4.730;2023-02-28T00:34:57;5.75;;;3.70;;
27618;SDS011;15039;50.830;4.730;2023-02-28T00:37:23;4.93;;;3.75;;
27618;SDS011;15039;50.830;4.730;2023-02-28T00:39:49;3.75;;;3.30;;
27618;SDS011;15039;50.830;4.730;2023-02-28T00:42:14;4.78;;;3.47;;
27618;SDS011;15039;50.830;4.730;2023-02-28T00:44:40;4.15;;;3.75;;
27618;SDS011;15039;50.830;4.730;2023-02-28T00:47:06;6.68;;;4.47;;
27618;SDS011;15039;50.830;4.730;2023-02-28T00:49:32;6.65;;;3.70;;
27618;SDS011;15039;50.830;4.730;2023-02-28T00:51:57;6.00;;;4.05;;
27618;SDS011;15039;50.830;4.730;2023-02-28T00:54:23;6.95;;;3.83;;
27618;SDS011;15039;50.830;4.730;2023-02-28T00:56:49;4.40;;;3.65;;
27618;SDS011;15039;50.830;4.730;2023-02-28T00:59:15;7.35;;;4.15;;
27618;SDS011;15039;50.830;4.730;2023-02-28T01:01:42;7.38;;;3.58;;
27618;SDS011;15039;50.830;4.730;2023-02-28T01:04:09;4.80;;;3.80;;
27618;SDS011;15039;50.830;4.730;2023-02-28T01:06:35;4.28;;;3.28;;
27618;SDS011;15039;50.830;4.730;2023-02-28T01:09:01;7.50;;;4.40;;
27618;SDS011;15039;50.830;4.730;2023-02-28T01:11:28;8.05;;;4.53;;
27618;SDS011;15039;50.830;4.730;2023-02-28T01:13:54;6.80;;;3.90;;
27618;SDS011;15039;50.830;4.730;2023-02-28T01:16:20;6.47;;;3.92;;
27618;SDS011;15039;50.830;4.730;2023-02-28T01:18:46;6.57;;;3.95;;
27618;SDS011;15039;50.830;4.730;2023-02-28T01:21:13;6.05;;;4.18;;
27618;SDS011;15039;50.830;4.730;2023-02-28T01:23:41;6.63;;;3.75;;
27618;SDS011;15039;50.830;4.730;2023-02-28T01:26:07;5.50;;;4.05;;
27618;SDS011;15039;50.830;4.730;2023-02-28T01:28:43;4.00;;;3.60;;
27618;SDS011;15039;50.830;4.730;2023-02-28T01:31:09;7.28;;;3.80;;
27618;SDS011;15039;50.830;4.730;2023-02-28T01:33:35;4.93;;;3.83;;
27618;SDS011;15039;50.830;4.730;2023-02-28T01:36:03;10.50;;;4.15;;
27618;SDS011;15039;50.830;4.730;2023-02-28T01:38:31;5.63;;;3.45;;
27618;SDS011;15039;50.830;4.730;2023-02-28T01:40:57;5.15;;;3.78;;
27618;SDS011;15039;50.830;4.730;2023-02-28T01:43:28;6.40;;;4.38;;
27618;SDS011;15039;50.830;4.730;2023-02-28T01:46:14;5.32;;;4.15;;
27618;SDS011;15039;50.830;4.730;2023-02-28T01:48:48;4.97;;;3.80;;
27618;SDS011;15039;50.830;4.730;2023-02-28T01:51:37;5.82;;;4.15;;
27618;SDS011;15039;50.830;4.730;2023-02-28T01:54:08;6.22;;;4.25;;
27618;SDS011;15039;50.830;4.730;2023-02-28T01:56:38;5.75;;;3.90;;
27618;SDS011;15039;50.830;4.730;2023-02-28T01:59:10;6.18;;;3.90;;
27618;SDS011;15039;50.830;4.730;2023-02-28T02:01:39;5.38;;;4.18;;
27618;SDS011;15039;50.830;4.730;2023-02-28T02:04:04;5.05;;;4.10;;
27618;SDS011;15039;50.830;4.730;2023-02-28T02:06:34;6.40;;;4.15;;
27618;SDS011;15039;50.830;4.730;2023-02-28T02:09:03;5.95;;;3.92;;
27618;SDS011;15039;50.830;4.730;2023-02-28T02:11:29;7.57;;;4.35;;
27618;SDS011;15039;50.830;4.730;2023-02-28T02:14:14;7.57;;;3.83;;
27618;SDS011;15039;50.830;4.730;2023-02-28T02:20:05;5.07;;;4.57;;
27618;SDS011;15039;50.830;4.730;2023-02-28T02:25:23;7.35;;;4.07;;
27618;SDS011;15039;50.830;4.730;2023-02-28T02:36:52;5.80;;;3.78;;
27618;SDS011;15039;50.830;4.730;2023-02-28T02:39:32;5.18;;;4.03;;
27618;SDS011;15039;50.830;4.730;2023-02-28T02:45:09;8.23;;;4.30;;
27618;SDS011;15039;50.830;4.730;2023-02-28T02:47:40;5.18;;;4.38;;
27618;SDS011;15039;50.830;4.730;2023-02-28T02:50:08;8.02;;;5.10;;
27618;SDS011;15039;50.830;4.730;2023-02-28T02:52:40;5.55;;;4.18;;
27618;SDS011;15039;50.830;4.730;2023-02-28T02:55:12;7.30;;;4.22;;
27618;SDS011;15039;50.830;4.730;2023-02-28T03:00:13;9.40;;;4.13;;
27618;SDS011;15039;50.830;4.730;2023-02-28T03:02:43;5.80;;;4.60;;
27618;SDS011;15039;50.830;4.730;2023-02-28T03:07:46;8.25;;;4.93;;
27618;SDS011;15039;50.830;4.730;2023-02-28T03:10:32;10.05;;;4.90;;
27618;SDS011;15039;50.830;4.730;2023-02-28T03:13:07;7.18;;;4.68;;
27618;SDS011;15039;50.830;4.730;2023-02-28T03:21:28;6.55;;;5.00;;
27618;SDS011;15039;50.830;4.730;2023-02-28T03:24:17;6.30;;;4.70;;
27618;SDS011;15039;50.830;4.730;2023-02-28T03:27:15;7.00;;;4.97;;
27618;SDS011;15039;50.830;4.730;2023-02-28T03:29:46;5.15;;;4.65;;
27618;SDS011;15039;50.830;4.730;2023-02-28T03:32:18;6.93;;;4.85;;
27618;SDS011;15039;50.830;4.730;2023-02-28T03:34:55;6.97;;;4.50;;
27618;SDS011;15039;50.830;4.730;2023-02-28T03:37:28;9.50;;;4.90;;
27618;SDS011;15039;50.830;4.730;2023-02-28T03:39:56;8.90;;;5.55;;
27618;SDS011;15039;50.830;4.730;2023-02-28T03:42:27;7.65;;;4.88;;
27618;SDS011;15039;50.830;4.730;2023-02-28T03:45:00;14.25;;;5.10;;
27618;SDS011;15039;50.830;4.730;2023-02-28T03:47:42;7.97;;;5.03;;
27618;SDS011;15039;50.830;4.730;2023-02-28T03:50:22;7.13;;;4.95;;
27618;SDS011;15039;50.830;4.730;2023-02-28T03:53:13;8.45;;;5.18;;
27618;SDS011;15039;50.830;4.730;2023-02-28T03:55:46;6.57;;;5.15;;
27618;SDS011;15039;50.830;4.730;2023-02-28T04:01:04;8.30;;;6.05;;
27618;SDS011;15039;50.830;4.730;2023-02-28T04:03:37;10.00;;;6.43;;
27618;SDS011;15039;50.830;4.730;2023-02-28T04:06:05;10.35;;;5.97;;
27618;SDS011;15039;50.830;4.730;2023-02-28T04:08:37;8.85;;;5.90;;
27618;SDS011;15039;50.830;4.730;2023-02-28T04:11:04;9.18;;;5.53;;
27618;SDS011;15039;50.830;4.730;2023-02-28T04:13:37;8.60;;;6.10;;
27618;SDS011;15039;50.830;4.730;2023-02-28T04:16:06;8.93;;;5.60;;
27618;SDS011;15039;50.830;4.730;2023-02-28T04:18:37;8.05;;;6.18;;
27618;SDS011;15039;50.830;4.730;2023-02-28T04:21:03;8.10;;;5.53;;
27618;SDS011;15039;50.830;4.730;2023-02-28T04:23:30;8.60;;;5.53;;
27618;SDS011;15039;50.830;4.730;2023-02-28T04:25:55;8.85;;;5.63;;
27618;SDS011;15039;50.830;4.730;2023-02-28T04:28:21;8.48;;;5.60;;
27618;SDS011;15039;50.830;4.730;2023-02-28T04:30:47;9.30;;;5.35;;
27618;SDS011;15039;50.830;4.730;2023-02-28T04:33:12;8.52;;;5.35;;
27618;SDS011;15039;50.830;4.730;2023-02-28T04:35:38;6.22;;;5.13;;
27618;SDS011;15039;50.830;4.730;2023-02-28T04:38:04;9.75;;;5.65;;
27618;SDS011;15039;50.830;4.730;2023-02-28T04:40:29;7.47;;;5.22;;
27618;SDS011;15039;50.830;4.730;2023-02-28T04:42:55;9.20;;;5.32;;
27618;SDS011;15039;50.830;4.730;2023-02-28T04:45:20;10.02;;;5.82;;
27618;SDS011;15039;50.830;4.730;2023-02-28T04:47:46;8.75;;;5.82;;
27618;SDS011;15039;50.830;4.730;2023-02-28T04:50:11;8.07;;;5.82;;
27618;SDS011;15039;50.830;4.730;2023-02-28T04:52:37;9.25;;;6.07;;
27618;SDS011;15039;50.830;4.730;2023-02-28T04:55:02;7.60;;;5.95;;
27618;SDS011;15039;50.830;4.730;2023-02-28T04:57:28;8.02;;;5.95;;
27618;SDS011;15039;50.830;4.730;2023-02-28T04:59:54;7.30;;;6.03;;
27618;SDS011;15039;50.830;4.730;2023-02-28T05:02:20;9.75;;;6.80;;
27618;SDS011;15039;50.830;4.730;2023-02-28T05:04:46;9.13;;;6.25;;
27618;SDS011;15039;50.830;4.730;2023-02-28T05:07:11;8.05;;;5.97;;
27618;SDS011;15039;50.830;4.730;2023-02-28T05:09:37;8.50;;;6.03;;
27618;SDS011;15039;50.830;4.730;2023-02-28T05:12:02;9.38;;;5.90;;
27618;SDS011;15039;50.830;4.730;2023-02-28T05:14:28;7.72;;;6.05;;
27618;SDS011;15039;50.830;4.730;2023-02-28T05:16:54;7.97;;;6.00;;
27618;SDS011;15039;50.830;4.730;2023-02-28T05:19:19;11.75;;;5.85;;
27618;SDS011;15039;50.830;4.730;2023-02-28T05:21:53;8.57;;;5.95;;
27618;SDS011;15039;50.830;4.730;2023-02-28T05:24:20;12.23;;;6.43;;
27618;SDS011;15039;50.830;4.730;2023-02-28T05:26:48;8.88;;;6.25;;
27618;SDS011;15039;50.830;4.730;2023-02-28T05:29:16;10.75;;;6.13;;
27618;SDS011;15039;50.830;4.730;2023-02-28T05:31:42;10.48;;;6.55;;
27618;SDS011;15039;50.830;4.730;2023-02-28T05:34:07;11.20;;;6.38;;
27618;SDS011;15039;50.830;4.730;2023-02-28T05:36:36;7.45;;;6.38;;
27618;SDS011;15039;50.830;4.730;2023-02-28T05:39:02;9.68;;;7.00;;
27618;SDS011;15039;50.830;4.730;2023-02-28T05:41:28;9.35;;;6.47;;
27618;SDS011;15039;50.830;4.730;2023-02-28T05:43:53;8.43;;;6.82;;
27618;SDS011;15039;50.830;4.730;2023-02-28T05:46:19;11.73;;;6.90;;
27618;SDS011;15039;50.830;4.730;2023-02-28T05:48:46;8.93;;;6.70;;
27618;SDS011;15039;50.830;4.730;2023-02-28T05:51:12;10.80;;;6.53;;
27618;SDS011;15039;50.830;4.730;2023-02-28T05:53:38;9.40;;;7.22;;
27618;SDS011;15039;50.830;4.730;2023-02-28T05:56:03;11.38;;;8.40;;
27618;SDS011;15039;50.830;4.730;2023-02-28T05:58:30;11.27;;;7.75;;
27618;SDS011;15039;50.830;4.730;2023-02-28T06:00:59;11.95;;;8.77;;
27618;SDS011;15039;50.830;4.730;2023-02-28T06:03:25;13.27;;;7.97;;
27618;SDS011;15039;50.830;4.730;2023-02-28T06:05:51;11.82;;;8.05;;
27618;SDS011;15039;50.830;4.730;2023-02-28T06:08:17;10.57;;;7.60;;
27618;SDS011;15039;50.830;4.730;2023-02-28T06:10:43;17.10;;;11.35;;
27618;SDS011;15039;50.830;4.730;2023-02-28T06:13:09;16.08;;;10.30;;
27618;SDS011;15039;50.830;4.730;2023-02-28T06:15:36;12.23;;;8.98;;
27618;SDS011;15039;50.830;4.730;2023-02-28T06:18:02;14.48;;;8.85;;
27618;SDS011;15039;50.830;4.730;2023-02-28T06:20:28;10.70;;;7.75;;
27618;SDS011;15039;50.830;4.730;2023-02-28T06:22:55;12.52;;;8.43;;
27618;SDS011;15039;50.830;4.730;2023-02-28T06:25:24;10.70;;;8.63;;
27618;SDS011;15039;50.830;4.730;2023-02-28T06:27:51;12.88;;;8.10;;
27618;SDS011;15039;50.830;4.730;2023-02-28T06:30:17;11.50;;;8.05;;
27618;SDS011;15039;50.830;4.730;2023-02-28T06:32:42;11.38;;;7.93;;
27618;SDS011;15039;50.830;4.730;2023-02-28T06:35:08;11.75;;;8.40;;
27618;SDS011;15039;50.830;4.730;2023-02-28T06:37:34;12.25;;;8.75;;
27618;SDS011;15039;50.830;4.730;2023-02-28T06:39:59;13.40;;;8.27;;
27618;SDS011;15039;50.830;4.730;2023-02-28T06:42:25;10.63;;;7.88;;
27618;SDS011;15039;50.830;4.730;2023-02-28T06:44:53;11.73;;;8.02;;
27618;SDS011;15039;50.830;4.730;2023-02-28T06:47:22;10.73;;;8.45;;
27618;SDS011;15039;50.830;4.730;2023-02-28T06:49:58;15.30;;;9.02;;
27618;SDS011;15039;50.830;4.730;2023-02-28T06:52:26;10.80;;;7.57;;
27618;SDS011;15039;50.830;4.730;2023-02-28T06:54:52;14.93;;;8.73;;
27618;SDS011;15039;50.830;4.730;2023-02-28T06:57:28;14.52;;;8.55;;
27618;SDS011;15039;50.830;4.730;2023-02-28T06:59:58;10.27;;;8.55;;
27618;SDS011;15039;50.830;4.730;2023-02-28T07:02:24;10.60;;;7.82;;
27618;SDS011;15039;50.830;4.730;2023-02-28T07:04:51;11.82;;;7.15;;
27618;SDS011;15039;50.830;4.730;2023-02-28T07:07:16;11.85;;;8.00;;
27618;SDS011;15039;50.830;4.730;2023-02-28T07:09:42;9.75;;;7.43;;
27618;SDS011;15039;50.830;4.730;2023-02-28T07:12:07;11.70;;;7.65;;
27618;SDS011;15039;50.830;4.730;2023-02-28T07:14:33;10.43;;;7.72;;
27618;SDS011;15039;50.830;4.730;2023-02-28T07:16:58;11.35;;;7.40;;
27618;SDS011;15039;50.830;4.730;2023-02-28T07:19:24;11.68;;;7.85;;
27618;SDS011;15039;50.830;4.730;2023-02-28T07:21:50;16.38;;;8.30;;
27618;SDS011;15039;50.830;4.730;2023-02-28T07:24:15;8.45;;;7.18;;
27618;SDS011;15039;50.830;4.730;2023-02-28T07:26:42;11.75;;;7.82;;
27618;SDS011;15039;50.830;4.730;2023-02-28T07:29:08;11.25;;;7.68;;
27618;SDS011;15039;50.830;4.730;2023-02-28T07:31:34;10.10;;;7.18;;
27618;SDS011;15039;50.830;4.730;2023-02-28T07:34:00;12.27;;;7.10;;
27618;SDS011;15039;50.830;4.730;2023-02-28T07:36:26;7.80;;;7.00;;
27618;SDS011;15039;50.830;4.730;2023-02-28T07:38:51;11.88;;;7.50;;
27618;SDS011;15039;50.830;4.730;2023-02-28T07:41:18;10.63;;;7.43;;
27618;SDS011;15039;50.830;4.730;2023-02-28T07:43:45;9.13;;;6.97;;
27618;SDS011;15039;50.830;4.730;2023-02-28T07:46:33;9.30;;;7.03;;
27618;SDS011;15039;50.830;4.730;2023-02-28T07:49:00;10.20;;;6.43;;
27618;SDS011;15039;50.830;4.730;2023-02-28T07:51:30;11.88;;;6.20;;
27618;SDS011;15039;50.830;4.730;2023-02-28T07:53:56;7.47;;;6.05;;
27618;SDS011;15039;50.830;4.730;2023-02-28T07:56:22;10.23;;;6.10;;
27618;SDS011;15039;50.830;4.730;2023-02-28T07:58:48;7.57;;;5.63;;
27618;SDS011;15039;50.830;4.730;2023-02-28T08:01:13;7.53;;;5.55;;
27618;SDS011;15039;50.830;4.730;2023-02-28T08:03:39;6.30;;;5.18;;
27618;SDS011;15039;50.830;4.730;2023-02-28T08:06:06;6.45;;;5.15;;
27618;SDS011;15039;50.830;4.730;2023-02-28T08:08:41;6.90;;;5.35;;
27618;SDS011;15039;50.830;4.730;2023-02-28T08:11:06;11.30;;;5.57;;
27618;SDS011;15039;50.830;4.730;2023-02-28T08:13:32;7.07;;;5.60;;
27618;SDS011;15039;50.830;4.730;2023-02-28T08:15:57;6.40;;;4.75;;
27618;SDS011;15039;50.830;4.730;2023-02-28T08:18:23;7.38;;;5.50;;
27618;SDS011;15039;50.830;4.730;2023-02-28T08:20:49;8.00;;;4.68;;
27618;SDS011;15039;50.830;4.730;2023-02-28T08:23:15;8.02;;;4.78;;
27618;SDS011;15039;50.830;4.730;2023-02-28T08:25:40;5.70;;;4.57;;
27618;SDS011;15039;50.830;4.730;2023-02-28T08:28:15;5.28;;;4.50;;
27618;SDS011;15039;50.830;4.730;2023-02-28T08:30:41;7.43;;;4.70;;
27618;SDS011;15039;50.830;4.730;2023-02-28T08:33:06;6.03;;;4.40;;
27618;SDS011;15039;50.830;4.730;2023-02-28T08:35:32;5.10;;;4.10;;
27618;SDS011;15039;50.830;4.730;2023-02-28T08:38:00;4.78;;;4.10;;
27618;SDS011;15039;50.830;4.730;2023-02-28T08:40:29;6.00;;;4.20;;
27618;SDS011;15039;50.830;4.730;2023-02-28T08:42:54;8.48;;;4.30;;
27618;SDS011;15039;50.830;4.730;2023-02-28T08:45:20;4.50;;;4.10;;
27618;SDS011;15039;50.830;4.730;2023-02-28T08:47:45;4.80;;;3.92;;
27618;SDS011;15039;50.830;4.730;2023-02-28T08:50:11;6.25;;;3.83;;
27618;SDS011;15039;50.830;4.730;2023-02-28T08:52:41;7.18;;;3.88;;
27618;SDS011;15039;50.830;4.730;2023-02-28T08:55:08;6.65;;;4.03;;
27618;SDS011;15039;50.830;4.730;2023-02-28T08:57:37;7.53;;;3.50;;
27618;SDS011;15039;50.830;4.730;2023-02-28T09:00:03;3.92;;;2.85;;
27618;SDS011;15039;50.830;4.730;2023-02-28T09:02:31;5.53;;;3.70;;
27618;SDS011;15039;50.830;4.730;2023-02-28T09:04:57;4.45;;;3.20;;
27618;SDS011;15039;50.830;4.730;2023-02-28T09:07:23;4.53;;;3.22;;
27618;SDS011;15039;50.830;4.730;2023-02-28T09:09:49;6.53;;;3.40;;
27618;SDS011;15039;50.830;4.730;2023-02-28T09:12:26;5.63;;;3.20;;
27618;SDS011;15039;50.830;4.730;2023-02-28T09:14:53;4.80;;;3.42;;
27618;SDS011;15039;50.830;4.730;2023-02-28T09:17:28;4.95;;;2.67;;
27618;SDS011;15039;50.830;4.730;2023-02-28T09:19:53;3.92;;;2.70;;
27618;SDS011;15039;50.830;4.730;2023-02-28T09:22:22;4.13;;;3.00;;
27618;SDS011;15039;50.830;4.730;2023-02-28T09:24:47;3.08;;;2.40;;
27618;SDS011;15039;50.830;4.730;2023-02-28T09:27:13;3.60;;;2.97;;
27618;SDS011;15039;50.830;4.730;2023-02-28T09:29:38;2.78;;;2.58;;
27618;SDS011;15039;50.830;4.730;2023-02-28T09:32:04;3.30;;;2.95;;
27618;SDS011;15039;50.830;4.730;2023-02-28T09:34:30;7.28;;;3.35;;
27618;SDS011;15039;50.830;4.730;2023-02-28T09:36:56;2.97;;;2.30;;
27618;SDS011;15039;50.830;4.730;2023-02-28T09:39:22;3.53;;;2.50;;
27618;SDS011;15039;50.830;4.730;2023-02-28T09:41:51;4.00;;;2.25;;
27618;SDS011;15039;50.830;4.730;2023-02-28T09:44:32;3.72;;;2.35;;
27618;SDS011;15039;50.830;4.730;2023-02-28T09:52:55;2.20;;;2.03;;
27618;SDS011;15039;50.830;4.730;2023-02-28T09:55:33;2.45;;;2.22;;
27618;SDS011;15039;50.830;4.730;2023-02-28T10:00:58;2.95;;;2.35;;
27618;SDS011;15039;50.830;4.730;2023-02-28T10:08:48;3.85;;;2.33;;
27618;SDS011;15039;50.830;4.730;2023-02-28T10:11:28;2.40;;;2.20;;
27618;SDS011;15039;50.830;4.730;2023-02-28T10:14:01;2.58;;;2.03;;
27618;SDS011;15039;50.830;4.730;2023-02-28T10:16:35;3.13;;;2.15;;
27618;SDS011;15039;50.830;4.730;2023-02-28T10:19:06;2.00;;;1.90;;
27618;SDS011;15039;50.830;4.730;2023-02-28T10:21:36;3.28;;;2.10;;
27618;SDS011;15039;50.830;4.730;2023-02-28T10:24:07;3.25;;;1.90;;
27618;SDS011;15039;50.830;4.730;2023-02-28T10:26:45;2.75;;;2.10;;
27618;SDS011;15039;50.830;4.730;2023-02-28T10:29:12;2.28;;;1.98;;
27618;SDS011;15039;50.830;4.730;2023-02-28T10:31:38;2.10;;;1.90;;
27618;SDS011;15039;50.830;4.730;2023-02-28T10:34:05;3.33;;;2.42;;
27618;SDS011;15039;50.830;4.730;2023-02-28T10:36:31;3.60;;;1.92;;
27618;SDS011;15039;50.830;4.730;2023-02-28T10:38:57;2.15;;;1.77;;
27618;SDS011;15039;50.830;4.730;2023-02-28T10:44:12;4.90;;;2.15;;
27618;SDS011;15039;50.830;4.730;2023-02-28T10:46:48;1.98;;;1.80;;
27618;SDS011;15039;50.830;4.730;2023-02-28T10:49:22;2.85;;;2.17;;
27618;SDS011;15039;50.830;4.730;2023-02-28T10:51:55;2.47;;;1.98;;
27618;SDS011;15039;50.830;4.730;2023-02-28T10:54:32;2.58;;;2.13;;
27618;SDS011;15039;50.830;4.730;2023-02-28T11:00:05;3.95;;;2.25;;
27618;SDS011;15039;50.830;4.730;2023-02-28T11:02:46;2.20;;;2.00;;
27618;SDS011;15039;50.830;4.730;2023-02-28T11:08:06;5.60;;;1.92;;
27618;SDS011;15039;50.830;4.730;2023-02-28T11:13:04;2.67;;;1.63;;
27618;SDS011;15039;50.830;4.730;2023-02-28T11:15:31;5.47;;;1.75;;
27618;SDS011;15039;50.830;4.730;2023-02-28T11:20:36;2.75;;;1.73;;
27618;SDS011;15039;50.830;4.730;2023-02-28T11:23:03;3.60;;;1.73;;
27618;SDS011;15039;50.830;4.730;2023-02-28T11:25:31;1.95;;;1.67;;
27618;SDS011;15039;50.830;4.730;2023-02-28T11:28:00;2.22;;;1.90;;
27618;SDS011;15039;50.830;4.730;2023-02-28T11:35:52;6.50;;;2.10;;
27618;SDS011;15039;50.830;4.730;2023-02-28T11:38:19;2.08;;;1.85;;
27618;SDS011;15039;50.830;4.730;2023-02-28T11:40:56;4.30;;;1.80;;
27618;SDS011;15039;50.830;4.730;2023-02-28T11:43:45;2.17;;;1.98;;
27618;SDS011;15039;50.830;4.730;2023-02-28T11:49:17;1.83;;;1.67;;
27618;SDS011;15039;50.830;4.730;2023-02-28T11:51:54;3.22;;;1.70;;
27618;SDS011;15039;50.830;4.730;2023-02-28T11:54:46;1.80;;;1.70;;
27618;SDS011;15039;50.830;4.730;2023-02-28T12:00:25;3.03;;;2.05;;
27618;SDS011;15039;50.830;4.730;2023-02-28T12:08:47;2.83;;;1.67;;
27618;SDS011;15039;50.830;4.730;2023-02-28T12:27:32;2.08;;;1.88;;
27618;SDS011;15039;50.830;4.730;2023-02-28T12:32:42;1.70;;;1.60;;
27618;SDS011;15039;50.830;4.730;2023-02-28T12:35:13;2.83;;;1.60;;
27618;SDS011;15039;50.830;4.730;2023-02-28T12:37:52;2.03;;;1.80;;
27618;SDS011;15039;50.830;4.730;2023-02-28T12:40:26;3.85;;;1.67;;
27618;SDS011;15039;50.830;4.730;2023-02-28T12:42:59;6.30;;;1.75;;
27618;SDS011;15039;50.830;4.730;2023-02-28T12:45:46;1.80;;;1.70;;
27618;SDS011;15039;50.830;4.730;2023-02-28T12:48:24;2.58;;;1.80;;
27618;SDS011;15039;50.830;4.730;2023-02-28T12:50:54;2.58;;;1.83;;
27618;SDS011;15039;50.830;4.730;2023-02-28T13:01:33;2.35;;;1.80;;
27618;SDS011;15039;50.830;4.730;2023-02-28T13:09:30;5.18;;;2.08;;
27618;SDS011;15039;50.830;4.730;2023-02-28T13:11:55;1.88;;;1.77;;
27618;SDS011;15039;50.830;4.730;2023-02-28T13:19:34;2.00;;;1.75;;
27618;SDS011;15039;50.830;4.730;2023-02-28T13:22:02;2.38;;;1.70;;
27618;SDS011;15039;50.830;4.730;2023-02-28T13:24:38;2.13;;;1.92;;
27618;SDS011;15039;50.830;4.730;2023-02-28T13:29:39;2.63;;;1.70;;
27618;SDS011;15039;50.830;4.730;2023-02-28T13:39:50;5.35;;;1.70;;
27618;SDS011;15039;50.830;4.730;2023-02-28T13:42:31;1.70;;;1.60;;
27618;SDS011;15039;50.830;4.730;2023-02-28T14:04:06;1.80;;;1.70;;
27618;SDS011;15039;50.830;4.730;2023-02-28T14:06:36;3.30;;;1.65;;
27618;SDS011;15039;50.830;4.730;2023-02-28T14:17:57;2.33;;;2.13;;
27618;SDS011;15039;50.830;4.730;2023-02-28T14:20:28;4.90;;;2.03;;
27618;SDS011;15039;50.830;4.730;2023-02-28T14:23:08;2.10;;;1.90;;
27618;SDS011;15039;50.830;4.730;2023-02-28T14:25:48;2.03;;;1.88;;
27618;SDS011;15039;50.830;4.730;2023-02-28T14:31:15;4.03;;;2.67;;
27618;SDS011;15039;50.830;4.730;2023-02-28T14:36:42;2.35;;;2.10;;
27618;SDS011;15039;50.830;4.730;2023-02-28T14:39:15;3.13;;;1.95;;
27618;SDS011;15039;50.830;4.730;2023-02-28T14:41:44;2.58;;;2.15;;
27618;SDS011;15039;50.830;4.730;2023-02-28T14:46:41;4.30;;;2.10;;
27618;SDS011;15039;50.830;4.730;2023-02-28T14:49:27;2.53;;;2.10;;
27618;SDS011;15039;50.830;4.730;2023-02-28T14:52:06;3.40;;;1.95;;
27618;SDS011;15039;50.830;4.730;2023-02-28T14:54:45;3.05;;;2.00;;
27618;SDS011;15039;50.830;4.730;2023-02-28T14:57:23;2.45;;;2.20;;
27618;SDS011;15039;50.830;4.730;2023-02-28T15:00:03;2.63;;;2.13;;
27618;SDS011;15039;50.830;4.730;2023-02-28T15:02:31;2.67;;;2.47;;
27618;SDS011;15039;50.830;4.730;2023-02-28T15:05:00;3.00;;;2.35;;
27618;SDS011;15039;50.830;4.730;2023-02-28T15:10:23;3.20;;;2.20;;
27618;SDS011;15039;50.830;4.730;2023-02-28T15:12:54;2.30;;;2.03;;
27618;SDS011;15039;50.830;4.730;2023-02-28T15:15:24;1.83;;;1.73;;
27618;SDS011;15039;50.830;4.730;2023-02-28T15:17:58;2.30;;;2.10;;
27618;SDS011;15039;50.830;4.730;2023-02-28T15:20:25;2.67;;;2.30;;
27618;SDS011;15039;50.830;4.730;2023-02-28T15:22:52;2.47;;;2.03;;
27618;SDS011;15039;50.830;4.730;2023-02-28T15:25:21;4.10;;;2.10;;
27618;SDS011;15039;50.830;4.730;2023-02-28T15:27:51;3.05;;;2.00;;
27618;SDS011;15039;50.830;4.730;2023-02-28T15:33:03;2.55;;;2.25;;
27618;SDS011;15039;50.830;4.730;2023-02-28T15:35:38;2.75;;;2.05;;
27618;SDS011;15039;50.830;4.730;2023-02-28T15:40:52;3.25;;;2.40;;
27618;SDS011;15039;50.830;4.730;2023-02-28T15:43:29;3.63;;;2.10;;
27618;SDS011;15039;50.830;4.730;2023-02-28T15:48:34;2.30;;;2.10;;
27618;SDS011;15039;50.830;4.730;2023-02-28T15:51:09;3.67;;;2.10;;
27618;SDS011;15039;50.830;4.730;2023-02-28T15:54:08;2.33;;;2.13;;
27618;SDS011;15039;50.830;4.730;2023-02-28T15:56:44;2.53;;;2.33;;
27618;SDS011;15039;50.830;4.730;2023-02-28T15:59:18;2.50;;;2.22;;
27618;SDS011;15039;50.830;4.730;2023-02-28T16:01:52;2.15;;;2.05;;
27618;SDS011;15039;50.830;4.730;2023-02-28T16:07:33;4.50;;;2.70;;
27618;SDS011;15039;50.830;4.730;2023-02-28T16:10:03;2.53;;;2.33;;
27618;SDS011;15039;50.830;4.730;2023-02-28T16:12:30;1.98;;;1.88;;
27618;SDS011;15039;50.830;4.730;2023-02-28T16:15:00;2.45;;;1.85;;
27618;SDS011;15039;50.830;4.730;2023-02-28T16:17:34;2.13;;;1.92;;
27618;SDS011;15039;50.830;4.730;2023-02-28T16:20:22;3.00;;;2.10;;
27618;SDS011;15039;50.830;4.730;2023-02-28T16:22:49;4.07;;;2.15;;
27618;SDS011;15039;50.830;4.730;2023-02-28T16:25:16;6.65;;;2.28;;
27618;SDS011;15039;50.830;4.730;2023-02-28T16:27:43;3.65;;;2.67;;
27618;SDS011;15039;50.830;4.730;2023-02-28T16:30:29;2.53;;;2.33;;
27618;SDS011;15039;50.830;4.730;2023-02-28T16:32:58;2.35;;;2.00;;
27618;SDS011;15039;50.830;4.730;2023-02-28T16:35:24;2.22;;;2.03;;
27618;SDS011;15039;50.830;4.730;2023-02-28T16:37:50;2.30;;;2.10;;
27618;SDS011;15039;50.830;4.730;2023-02-28T16:40:17;2.38;;;2.13;;
27618;SDS011;15039;50.830;4.730;2023-02-28T16:42:51;3.65;;;2.00;;
27618;SDS011;15039;50.830;4.730;2023-02-28T16:45:22;2.33;;;2.13;;
27618;SDS011;15039;50.830;4.730;2023-02-28T16:47:50;4.03;;;2.00;;
27618;SDS011;15039;50.830;4.730;2023-02-28T16:50:17;4.80;;;2.30;;
27618;SDS011;15039;50.830;4.730;2023-02-28T16:52:44;4.53;;;2.67;;
27618;SDS011;15039;50.830;4.730;2023-02-28T16:55:10;4.10;;;2.10;;
27618;SDS011;15039;50.830;4.730;2023-02-28T16:57:36;5.78;;;2.40;;
27618;SDS011;15039;50.830;4.730;2023-02-28T17:00:04;3.17;;;2.38;;
27618;SDS011;15039;50.830;4.730;2023-02-28T17:02:32;2.78;;;2.45;;
27618;SDS011;15039;50.830;4.730;2023-02-28T17:04:58;9.35;;;2.58;;
27618;SDS011;15039;50.830;4.730;2023-02-28T17:07:24;2.78;;;2.10;;
27618;SDS011;15039;50.830;4.730;2023-02-28T17:09:50;4.75;;;2.05;;
27618;SDS011;15039;50.830;4.730;2023-02-28T17:12:15;4.40;;;2.60;;
27618;SDS011;15039;50.830;4.730;2023-02-28T17:14:41;2.80;;;2.25;;
27618;SDS011;15039;50.830;4.730;2023-02-28T17:17:07;4.10;;;2.30;;
27618;SDS011;15039;50.830;4.730;2023-02-28T17:19:34;4.20;;;2.70;;
27618;SDS011;15039;50.830;4.730;2023-02-28T17:22:01;2.55;;;2.35;;
27618;SDS011;15039;50.830;4.730;2023-02-28T17:24:28;4.60;;;2.35;;
27618;SDS011;15039;50.830;4.730;2023-02-28T17:26:53;5.45;;;2.40;;
27618;SDS011;15039;50.830;4.730;2023-02-28T17:29:20;4.30;;;2.70;;
27618;SDS011;15039;50.830;4.730;2023-02-28T17:31:46;2.65;;;2.42;;
27618;SDS011;15039;50.830;4.730;2023-02-28T17:34:13;3.88;;;2.67;;
27618;SDS011;15039;50.830;4.730;2023-02-28T17:36:44;4.57;;;2.70;;
27618;SDS011;15039;50.830;4.730;2023-02-28T17:39:11;3.72;;;2.70;;
27618;SDS011;15039;50.830;4.730;2023-02-28T17:41:39;3.63;;;3.00;;
27618;SDS011;15039;50.830;4.730;2023-02-28T17:44:06;3.83;;;2.95;;
27618;SDS011;15039;50.830;4.730;2023-02-28T17:46:31;6.13;;;3.63;;
27618;SDS011;15039;50.830;4.730;2023-02-28T17:48:57;5.38;;;2.65;;
27618;SDS011;15039;50.830;4.730;2023-02-28T17:51:23;3.35;;;2.50;;
27618;SDS011;15039;50.830;4.730;2023-02-28T17:53:49;3.05;;;2.78;;